createdAt,value
2022-08-23T00:01:16.968Z,7.57
2022-08-23T00:03:46.776Z,7.85
2022-08-23T00:06:15.534Z,6.18
2022-08-23T00:08:48.755Z,7.85
2022-08-23T00:11:25.721Z,10.65
2022-08-23T00:13:53.107Z,7.72
2022-08-23T00:16:20.519Z,7.30
2022-08-23T00:18:49.493Z,6.35
2022-08-23T00:21:18.318Z,7.88
2022-08-23T00:23:45.699Z,6.60
2022-08-23T00:26:13.041Z,7.13
2022-08-23T00:28:40.513Z,6.15
2022-08-23T00:31:07.873Z,8.35
2022-08-23T00:33:35.321Z,5.03
2022-08-23T00:36:02.711Z,7.95
2022-08-23T00:38:33.874Z,8.38
2022-08-23T00:41:02.397Z,10.07
2022-08-23T00:43:47.885Z,7.22
2022-08-23T00:46:35.210Z,5.65
2022-08-23T00:49:02.733Z,6.78
2022-08-23T00:51:46.905Z,5.40
2022-08-23T00:54:22.154Z,8.07
2022-08-23T00:56:49.809Z,8.63
2022-08-23T00:59:17.179Z,6.70
2022-08-23T01:01:44.632Z,6.13
2022-08-23T01:04:12.370Z,7.88
2022-08-23T01:06:41.604Z,5.65
2022-08-23T01:09:09.721Z,10.60
2022-08-23T01:11:39.158Z,8.93
2022-08-23T01:14:07.199Z,9.68
2022-08-23T01:16:35.309Z,10.57
2022-08-23T01:19:02.784Z,7.03
2022-08-23T01:21:31.127Z,4.85
2022-08-23T01:24:00.743Z,7.10
2022-08-23T01:26:28.363Z,4.72
2022-08-23T01:28:55.731Z,6.75
2022-08-23T01:31:23.190Z,7.30
2022-08-23T01:33:51.036Z,6.43
2022-08-23T01:36:18.412Z,6.88
2022-08-23T01:38:45.764Z,5.50
2022-08-23T01:41:14.468Z,4.50
2022-08-23T01:43:41.829Z,6.35
2022-08-23T01:46:09.456Z,9.82
2022-08-23T01:48:36.853Z,6.60
2022-08-23T01:51:04.332Z,9.18
2022-08-23T01:53:31.956Z,8.48
2022-08-23T01:56:01.655Z,10.93
2022-08-23T01:58:30.785Z,6.60
2022-08-23T02:00:58.383Z,8.27
2022-08-23T02:03:25.827Z,6.97
2022-08-23T02:05:53.178Z,8.43
2022-08-23T02:08:38.165Z,8.98
2022-08-23T02:11:08.490Z,6.78
2022-08-23T02:13:37.204Z,5.60
2022-08-23T02:16:04.700Z,5.78
2022-08-23T02:18:33.106Z,4.95
2022-08-23T02:21:04.701Z,6.35
2022-08-23T02:23:32.105Z,6.15
2022-08-23T02:25:59.442Z,6.80
2022-08-23T02:28:26.779Z,6.90
2022-08-23T02:30:55.484Z,4.40
2022-08-23T02:33:23.082Z,6.80
2022-08-23T02:35:50.502Z,5.80
2022-08-23T02:38:18.210Z,5.90
2022-08-23T02:40:45.571Z,6.78
2022-08-23T02:43:12.938Z,7.53
2022-08-23T02:45:40.479Z,4.47
2022-08-23T02:48:09.259Z,6.45
2022-08-23T02:50:36.650Z,6.47
2022-08-23T02:53:04.244Z,6.57
2022-08-23T02:55:31.589Z,5.72
2022-08-23T02:57:59.701Z,5.75
2022-08-23T03:00:27.161Z,6.43
2022-08-23T03:02:54.793Z,5.53
2022-08-23T03:05:23.547Z,6.75
2022-08-23T03:07:50.888Z,6.72
2022-08-23T03:10:18.223Z,5.45
2022-08-23T03:12:45.574Z,5.45
2022-08-23T03:15:12.902Z,6.20
2022-08-23T03:17:40.240Z,5.85
2022-08-23T03:20:08.155Z,8.70
2022-08-23T03:22:37.384Z,6.25
2022-08-23T03:25:05.142Z,7.55
2022-08-23T03:27:32.817Z,7.07
2022-08-23T03:30:06.146Z,5.82
2022-08-23T03:32:38.817Z,5.07
2022-08-23T03:35:16.248Z,6.70
2022-08-23T03:37:44.915Z,6.10
2022-08-23T03:40:12.727Z,5.43
2022-08-23T03:42:40.200Z,5.45
2022-08-23T03:45:08.029Z,6.68
2022-08-23T03:47:35.610Z,6.20
2022-08-23T03:50:02.949Z,10.90
2022-08-23T03:52:30.295Z,5.28
2022-08-23T03:54:59.221Z,7.20
2022-08-23T03:57:26.570Z,7.40
2022-08-23T03:59:53.927Z,8.10
2022-08-23T04:02:21.698Z,7.20
2022-08-23T04:04:49.045Z,6.75
2022-08-23T04:07:18.941Z,8.18
2022-08-23T04:09:46.848Z,8.15
2022-08-23T04:12:17.791Z,7.97
2022-08-23T04:14:45.572Z,6.55
2022-08-23T04:17:12.904Z,7.30
2022-08-23T04:19:40.297Z,5.72
2022-08-23T04:22:08.118Z,12.07
2022-08-23T04:24:35.470Z,8.68
2022-08-23T04:27:02.816Z,8.25
2022-08-23T04:29:34.413Z,7.45
2022-08-23T04:32:02.720Z,6.93
2022-08-23T04:34:33.745Z,13.88
2022-08-23T04:37:01.907Z,6.97
2022-08-23T04:39:29.638Z,9.80
2022-08-23T04:42:23.123Z,5.68
2022-08-23T04:44:51.848Z,6.72
2022-08-23T04:47:20.297Z,4.60
2022-08-23T04:49:47.808Z,7.85
2022-08-23T04:52:19.180Z,9.75
2022-08-23T04:54:47.682Z,8.40
2022-08-23T04:57:16.786Z,6.65
2022-08-23T04:59:44.177Z,9.30
2022-08-23T05:02:13.130Z,9.00
2022-08-23T05:04:41.275Z,6.13
2022-08-23T05:07:08.614Z,6.72
2022-08-23T05:09:35.977Z,6.90
2022-08-23T05:12:03.458Z,7.95
2022-08-23T05:14:30.761Z,5.60
2022-08-23T05:16:58.082Z,6.05
2022-08-23T05:19:26.773Z,6.93
2022-08-23T05:21:57.099Z,7.35
2022-08-23T05:24:24.702Z,5.95
2022-08-23T05:26:52.090Z,5.53
2022-08-23T05:29:21.361Z,7.60
2022-08-23T05:31:49.940Z,7.18
2022-08-23T05:34:17.359Z,4.72
2022-08-23T05:36:55.950Z,5.38
2022-08-23T05:39:26.585Z,7.18
2022-08-23T05:42:03.573Z,6.43
2022-08-23T05:44:36.384Z,8.00
2022-08-23T05:47:04.191Z,7.57
2022-08-23T05:49:38.074Z,4.57
2022-08-23T05:52:06.974Z,5.45
2022-08-23T05:54:34.422Z,8.25
2022-08-23T05:57:02.013Z,6.18
2022-08-23T05:59:29.501Z,4.72
2022-08-23T06:01:57.280Z,5.85
2022-08-23T06:04:24.636Z,4.63
2022-08-23T06:06:52.065Z,9.65
2022-08-23T06:09:20.771Z,10.93
2022-08-23T06:11:48.394Z,10.90
2022-08-23T06:14:15.959Z,11.10
2022-08-23T06:16:43.999Z,11.52
2022-08-23T06:19:11.385Z,11.73
2022-08-23T06:21:38.774Z,11.10
2022-08-23T06:24:07.049Z,12.85
2022-08-23T06:26:36.293Z,13.90
2022-08-23T06:29:06.419Z,12.93
2022-08-23T06:31:48.900Z,15.77
2022-08-23T06:34:18.557Z,12.63
2022-08-23T06:36:46.206Z,14.07
2022-08-23T06:39:13.627Z,11.73
2022-08-23T06:41:42.640Z,8.63
2022-08-23T06:44:09.968Z,11.45
2022-08-23T06:46:38.306Z,10.07
2022-08-23T06:49:06.509Z,11.75
2022-08-23T06:51:34.282Z,15.18
2022-08-23T06:54:02.914Z,13.35
2022-08-23T06:56:30.826Z,15.68
2022-08-23T06:58:59.527Z,16.70
2022-08-23T07:01:45.118Z,23.48
2022-08-23T07:04:13.931Z,14.02
2022-08-23T07:06:41.287Z,15.38
2022-08-23T07:09:08.732Z,17.48
2022-08-23T07:11:36.090Z,15.07
2022-08-23T07:14:05.362Z,13.85
2022-08-23T07:16:33.166Z,15.32
2022-08-23T07:19:00.651Z,15.40
2022-08-23T07:21:28.007Z,13.32
2022-08-23T07:23:55.997Z,12.18
2022-08-23T07:26:24.389Z,17.00
2022-08-23T07:28:51.697Z,15.10
2022-08-23T07:31:21.070Z,23.83
2022-08-23T07:33:48.762Z,16.15
2022-08-23T07:36:16.863Z,18.42
2022-08-23T07:38:45.416Z,15.18
2022-08-23T07:41:12.890Z,17.83
2022-08-23T07:43:40.366Z,13.88
2022-08-23T07:46:09.514Z,18.08
2022-08-23T07:48:53.851Z,16.35
2022-08-23T07:51:21.963Z,20.90
2022-08-23T07:53:49.313Z,16.83
2022-08-23T07:56:17.786Z,21.42
2022-08-23T07:58:45.180Z,15.88
2022-08-23T08:01:12.975Z,16.38
2022-08-23T08:03:41.658Z,15.48
2022-08-23T08:06:09.923Z,18.35
2022-08-23T08:08:37.266Z,17.67
2022-08-23T08:11:04.596Z,19.98
2022-08-23T08:13:33.065Z,18.70
2022-08-23T08:16:00.450Z,17.58
2022-08-23T08:18:27.857Z,15.45
2022-08-23T08:20:56.533Z,18.95
2022-08-23T08:23:23.891Z,14.23
2022-08-23T08:25:59.189Z,17.58
2022-08-23T08:28:27.247Z,15.77
2022-08-23T08:30:54.620Z,17.83
2022-08-23T08:33:21.969Z,15.63
2022-08-23T08:35:57.865Z,22.15
2022-08-23T08:38:30.176Z,15.80
2022-08-23T08:41:00.699Z,14.05
2022-08-23T08:43:29.887Z,18.92
2022-08-23T08:46:00.603Z,17.08
2022-08-23T08:48:28.006Z,19.73
2022-08-23T08:50:55.883Z,16.35
2022-08-23T08:53:23.633Z,13.77
2022-08-23T08:55:53.052Z,17.77
2022-08-23T08:58:22.383Z,11.20
2022-08-23T09:00:53.856Z,20.02
2022-08-23T09:03:24.101Z,15.45
2022-08-23T09:05:53.544Z,14.60
2022-08-23T09:08:24.974Z,12.68
2022-08-23T09:10:54.455Z,16.35
2022-08-23T09:13:33.694Z,14.43
2022-08-23T09:16:02.961Z,16.38
2022-08-23T09:18:31.380Z,15.45
2022-08-23T09:20:58.756Z,15.10
2022-08-23T09:23:27.116Z,12.07
2022-08-23T09:25:59.859Z,10.07
2022-08-23T09:28:30.175Z,12.10
2022-08-23T09:30:58.250Z,15.45
2022-08-23T09:33:26.489Z,15.10
2022-08-23T09:36:03.481Z,12.90
2022-08-23T09:38:30.831Z,11.55
2022-08-23T09:40:59.521Z,13.30
2022-08-23T09:43:27.588Z,15.23
2022-08-23T09:45:56.213Z,12.93
2022-08-23T09:48:34.071Z,11.30
2022-08-23T09:51:04.501Z,12.05
2022-08-23T09:53:31.921Z,12.25
2022-08-23T09:56:11.010Z,8.73
2022-08-23T09:58:40.396Z,13.05
2022-08-23T10:01:09.517Z,9.60
2022-08-23T10:03:36.917Z,10.20
2022-08-23T10:06:04.266Z,6.68
2022-08-23T10:08:33.141Z,8.02
2022-08-23T10:11:03.543Z,10.50
2022-08-23T10:13:32.006Z,9.27
2022-08-23T10:16:03.041Z,12.15
2022-08-23T10:18:34.780Z,9.23
2022-08-23T10:21:02.924Z,10.00
2022-08-23T10:23:35.352Z,14.95
2022-08-23T10:26:04.023Z,9.05
2022-08-23T10:28:51.450Z,13.45
2022-08-23T10:31:21.359Z,9.45
2022-08-23T10:33:50.282Z,8.68
2022-08-23T10:36:18.960Z,10.88
2022-08-23T10:38:46.450Z,9.77
2022-08-23T10:41:22.045Z,13.20
2022-08-23T10:43:51.407Z,10.80
2022-08-23T10:46:18.848Z,12.15
2022-08-23T10:48:49.156Z,5.07
2022-08-23T10:51:21.284Z,11.45
2022-08-23T10:53:56.738Z,8.18
2022-08-23T10:56:25.447Z,12.10
2022-08-23T10:58:53.540Z,9.02
2022-08-23T11:01:21.741Z,7.57
2022-08-23T11:03:51.382Z,14.40
2022-08-23T11:06:25.663Z,9.23
2022-08-23T11:08:58.525Z,10.00
2022-08-23T11:11:39.352Z,8.88
2022-08-23T11:14:07.159Z,8.85
2022-08-23T11:16:34.529Z,7.85
2022-08-23T11:19:01.892Z,11.68
2022-08-23T11:21:51.011Z,6.53
2022-08-23T11:24:31.555Z,9.18
2022-08-23T11:27:06.926Z,8.43
2022-08-23T11:29:35.344Z,5.75
2022-08-23T11:32:03.879Z,6.97
2022-08-23T11:34:31.806Z,7.47
2022-08-23T11:37:18.008Z,4.97
2022-08-23T11:40:02.295Z,7.53
2022-08-23T11:42:45.047Z,5.32
2022-08-23T11:45:21.731Z,6.78
2022-08-23T11:47:49.056Z,9.00
2022-08-23T11:50:19.111Z,7.80
2022-08-23T11:52:59.943Z,5.25
2022-08-23T11:55:46.346Z,4.88
2022-08-23T11:58:18.235Z,10.82
2022-08-23T12:01:00.525Z,7.22
2022-08-23T12:03:33.394Z,9.25
2022-08-23T12:06:09.466Z,11.95
2022-08-23T12:08:48.003Z,12.07
2022-08-23T12:11:15.709Z,7.78
2022-08-23T12:13:51.763Z,6.82
2022-08-23T12:16:49.818Z,4.05
2022-08-23T12:19:20.463Z,5.18
2022-08-23T12:21:52.767Z,9.50
2022-08-23T12:24:23.000Z,6.43
2022-08-23T12:26:54.246Z,5.70
2022-08-23T12:29:24.998Z,5.85
2022-08-23T12:31:53.281Z,6.90
2022-08-23T12:34:21.947Z,5.97
2022-08-23T12:36:50.747Z,5.25
2022-08-23T12:39:22.270Z,7.95
2022-08-23T12:41:51.227Z,6.03
2022-08-23T12:44:18.762Z,7.25
2022-08-23T12:46:48.062Z,7.40
2022-08-23T12:49:23.077Z,6.05
2022-08-23T12:51:50.707Z,12.55
2022-08-23T12:54:18.760Z,8.50
2022-08-23T12:56:46.908Z,7.43
2022-08-23T12:59:28.506Z,6.85
2022-08-23T13:01:57.264Z,12.30
2022-08-23T13:04:24.646Z,10.70
2022-08-23T13:06:52.627Z,5.78
2022-08-23T13:09:20.299Z,9.48
2022-08-23T13:11:47.661Z,8.02
2022-08-23T13:14:33.369Z,5.65
2022-08-23T13:17:13.511Z,12.18
2022-08-23T13:19:40.918Z,7.88
2022-08-23T13:22:11.822Z,11.20
2022-08-23T13:24:39.714Z,12.90
2022-08-23T13:27:14.401Z,13.95
2022-08-23T13:29:59.763Z,8.52
2022-08-23T13:32:32.743Z,10.07
2022-08-23T13:35:27.010Z,11.38
2022-08-23T13:37:54.761Z,8.48
2022-08-23T13:40:22.851Z,9.13
2022-08-23T13:42:52.700Z,7.18
2022-08-23T13:45:20.963Z,9.88
2022-08-23T13:47:51.771Z,7.28
2022-08-23T13:50:25.607Z,14.02
2022-08-23T13:55:41.426Z,6.05
2022-08-23T13:58:10.068Z,5.78
2022-08-23T14:00:37.420Z,14.75
2022-08-23T14:03:06.656Z,6.90
2022-08-23T14:05:33.991Z,6.65
2022-08-23T14:08:01.336Z,5.97
2022-08-23T14:10:28.649Z,4.57
2022-08-23T14:12:56.055Z,5.45
2022-08-23T14:15:54.586Z,7.80
2022-08-23T14:18:12.397Z,9.38
2022-08-23T14:20:46.941Z,7.57
2022-08-23T14:23:14.417Z,7.22
2022-08-23T14:25:42.038Z,5.43
2022-08-23T14:28:09.409Z,5.28
2022-08-23T14:30:37.278Z,4.72
2022-08-23T14:33:04.748Z,6.85
2022-08-23T14:35:33.439Z,5.80
2022-08-23T14:38:03.180Z,11.80
2022-08-23T14:40:31.360Z,5.20
2022-08-23T14:42:58.829Z,3.63
2022-08-23T14:45:26.356Z,4.65
2022-08-23T14:47:53.696Z,6.00
2022-08-23T14:50:21.057Z,4.55
2022-08-23T14:52:49.867Z,6.28
2022-08-23T14:55:17.213Z,8.32
2022-08-23T14:57:44.616Z,5.28
2022-08-23T15:00:14.601Z,4.00
2022-08-23T15:02:44.249Z,10.48
2022-08-23T15:05:11.909Z,8.38
2022-08-23T15:07:39.249Z,6.50
2022-08-23T15:10:09.793Z,7.82
2022-08-23T15:15:24.515Z,5.13
2022-08-23T15:17:53.139Z,7.78
2022-08-23T15:20:20.555Z,5.88
2022-08-23T15:22:52.377Z,6.10
2022-08-23T15:25:24.799Z,7.13
2022-08-23T15:27:52.207Z,9.02
2022-08-23T15:30:19.601Z,5.30
2022-08-23T15:32:52.555Z,10.10
2022-08-23T15:35:23.926Z,10.40
2022-08-23T15:37:52.354Z,5.75
2022-08-23T15:40:19.753Z,8.40
2022-08-23T15:42:48.747Z,9.98
2022-08-23T15:45:16.058Z,4.70
2022-08-23T15:47:44.518Z,5.00
2022-08-23T15:50:11.875Z,6.40
2022-08-23T15:52:39.276Z,3.10
2022-08-23T15:55:06.762Z,3.38
2022-08-23T15:57:39.349Z,5.82
2022-08-23T16:00:09.605Z,3.17
2022-08-23T16:02:57.395Z,4.13
2022-08-23T16:05:24.311Z,4.78
2022-08-23T16:07:52.980Z,3.90
2022-08-23T16:10:20.335Z,5.70
2022-08-23T16:12:47.712Z,6.65
2022-08-23T16:15:16.510Z,4.80
2022-08-23T16:17:43.857Z,6.47
2022-08-23T16:20:12.470Z,6.38
2022-08-23T16:22:41.515Z,7.15
2022-08-23T16:25:09.314Z,6.32
2022-08-23T16:27:36.756Z,4.65
2022-08-23T16:30:04.377Z,4.75
2022-08-23T16:32:33.235Z,5.25
2022-08-23T16:35:00.586Z,4.70
2022-08-23T16:37:27.922Z,9.70
2022-08-23T16:39:55.317Z,5.32
2022-08-23T16:42:22.673Z,7.13
2022-08-23T16:44:50.009Z,7.50
2022-08-23T16:47:17.364Z,7.20
2022-08-23T16:49:46.109Z,5.97
2022-08-23T16:52:14.030Z,3.00
2022-08-23T16:54:41.386Z,6.72
2022-08-23T16:57:08.732Z,7.20
2022-08-23T16:59:40.363Z,5.18
2022-08-23T17:02:11.161Z,10.35
2022-08-23T17:04:38.595Z,10.32
2022-08-23T17:07:07.420Z,11.25
2022-08-23T17:09:34.779Z,22.95
2022-08-23T17:12:02.167Z,26.13
2022-08-23T17:14:29.533Z,17.42
2022-08-23T17:16:56.952Z,20.67
2022-08-23T17:19:24.756Z,16.00
2022-08-23T17:21:52.101Z,17.17
2022-08-23T17:24:20.815Z,16.63
2022-08-23T17:26:49.573Z,13.25
2022-08-23T17:29:16.896Z,10.50
2022-08-23T17:31:47.776Z,11.30
2022-08-23T17:34:15.247Z,11.35
2022-08-23T17:36:46.207Z,9.25
2022-08-23T17:39:15.766Z,7.93
2022-08-23T17:41:45.553Z,10.18
2022-08-23T17:44:13.347Z,10.00
2022-08-23T17:46:41.148Z,7.25
2022-08-23T17:49:08.611Z,9.05
2022-08-23T17:51:36.701Z,6.45
2022-08-23T17:54:04.163Z,6.65
2022-08-23T17:56:31.935Z,6.03
2022-08-23T17:59:00.752Z,8.10
2022-08-23T18:01:28.154Z,3.63
2022-08-23T18:03:55.529Z,5.78
2022-08-23T18:06:23.638Z,4.50
2022-08-23T18:08:51.130Z,3.60
2022-08-23T18:11:18.471Z,3.47
2022-08-23T18:13:45.814Z,3.45
2022-08-23T18:16:14.899Z,4.90
2022-08-23T18:18:42.493Z,6.32
2022-08-23T18:21:11.868Z,5.50
2022-08-23T18:23:39.349Z,5.05
2022-08-23T18:26:07.058Z,5.13
2022-08-23T18:28:33.447Z,5.18
2022-08-23T18:31:03.497Z,4.10
2022-08-23T18:33:46.898Z,6.88
2022-08-23T18:36:15.477Z,7.72
2022-08-23T18:38:42.811Z,7.80
2022-08-23T18:41:10.172Z,4.90
2022-08-23T18:43:37.904Z,3.70
2022-08-23T18:46:05.455Z,9.18
2022-08-23T18:48:34.272Z,3.95
2022-08-23T18:51:01.949Z,3.53
2022-08-23T18:53:29.289Z,5.40
2022-08-23T18:55:56.601Z,6.75
2022-08-23T18:58:24.247Z,4.70
2022-08-23T19:00:53.585Z,6.45
2022-08-23T19:03:21.073Z,4.38
2022-08-23T19:05:49.749Z,3.30
2022-08-23T19:08:17.113Z,3.80
2022-08-23T19:10:44.501Z,7.85
2022-08-23T19:13:11.924Z,4.43
2022-08-23T19:15:40.467Z,4.80
2022-08-23T19:18:07.889Z,7.80
2022-08-23T19:20:35.251Z,6.47
2022-08-23T19:23:04.382Z,6.78
2022-08-23T19:25:33.845Z,4.70
2022-08-23T19:28:01.194Z,7.18
2022-08-23T19:30:28.738Z,6.25
2022-08-23T19:32:56.442Z,4.55
2022-08-23T19:35:23.828Z,6.97
2022-08-23T19:37:51.177Z,11.15
2022-08-23T19:40:20.247Z,6.65
2022-08-23T19:42:48.641Z,7.63
2022-08-23T19:45:16.110Z,9.00
2022-08-23T19:47:43.489Z,8.35
2022-08-23T19:50:11.006Z,7.38
2022-08-23T19:52:38.406Z,5.35
2022-08-23T19:55:07.469Z,6.93
2022-08-23T19:57:36.722Z,10.32
2022-08-23T20:00:09.660Z,14.02
2022-08-23T20:02:37.008Z,4.25
2022-08-23T20:05:05.401Z,9.05
2022-08-23T20:07:32.756Z,6.28
2022-08-23T20:10:00.162Z,12.68
2022-08-23T20:12:28.828Z,9.00
2022-08-23T20:14:57.511Z,8.73
2022-08-23T20:17:24.862Z,7.97
2022-08-23T20:19:52.230Z,6.45
2022-08-23T20:22:37.118Z,5.90
2022-08-23T20:25:05.398Z,8.93
2022-08-23T20:27:33.210Z,7.18
2022-08-23T20:30:02.219Z,5.50
2022-08-23T20:32:29.616Z,5.97
2022-08-23T20:34:56.979Z,7.30
2022-08-23T20:37:24.349Z,8.18
2022-08-23T20:39:52.292Z,6.03
2022-08-23T20:42:19.722Z,8.45
2022-08-23T20:44:47.119Z,11.93
2022-08-23T20:47:15.824Z,9.35
2022-08-23T20:49:43.231Z,5.80
2022-08-23T20:52:10.592Z,10.80
2022-08-23T20:54:37.940Z,7.35
2022-08-23T20:57:05.294Z,6.68
2022-08-23T20:59:32.648Z,13.80
2022-08-23T21:02:00.038Z,12.13
2022-08-23T21:04:30.251Z,7.80
2022-08-23T21:06:57.873Z,6.07
2022-08-23T21:09:29.161Z,9.20
2022-08-23T21:11:57.043Z,8.48
2022-08-23T21:14:24.462Z,6.68
2022-08-23T21:16:52.027Z,8.98
2022-08-23T21:19:19.646Z,7.85
2022-08-23T21:21:48.348Z,9.32
2022-08-23T21:24:15.747Z,15.38
2022-08-23T21:26:43.098Z,12.95
2022-08-23T21:29:10.571Z,7.60
2022-08-23T21:31:38.011Z,12.88
2022-08-23T21:34:05.428Z,9.20
2022-08-23T21:36:32.759Z,6.57
2022-08-23T21:39:01.430Z,12.68
2022-08-23T21:41:33.518Z,8.88
2022-08-23T21:44:01.101Z,8.57
2022-08-23T21:46:28.475Z,8.20
2022-08-23T21:48:55.937Z,7.97
2022-08-23T21:51:23.287Z,11.18
2022-08-23T21:53:50.831Z,11.50
2022-08-23T21:56:20.583Z,8.70
2022-08-23T21:58:50.498Z,7.28
2022-08-23T22:01:18.461Z,8.57
2022-08-23T22:03:45.857Z,9.88
2022-08-23T22:06:13.281Z,9.68
2022-08-23T22:08:40.887Z,5.78
2022-08-23T22:11:08.296Z,9.32
2022-08-23T22:13:37.017Z,11.98
2022-08-23T22:16:04.696Z,9.25
2022-08-23T22:18:32.220Z,5.03
2022-08-23T22:20:59.753Z,5.07
2022-08-23T22:23:27.170Z,8.20
2022-08-23T22:25:56.790Z,8.57
2022-08-23T22:28:24.153Z,9.35
2022-08-23T22:30:53.335Z,11.98
2022-08-23T22:33:21.972Z,6.30
2022-08-23T22:35:49.293Z,7.20
2022-08-23T22:38:17.246Z,6.25
2022-08-23T22:40:47.926Z,9.20
2022-08-23T22:43:15.361Z,8.30
2022-08-23T22:45:49.130Z,11.07
2022-08-23T22:48:17.874Z,9.48
2022-08-23T22:50:45.235Z,15.55
2022-08-23T22:53:12.923Z,9.18
2022-08-23T22:55:40.686Z,6.30
2022-08-23T22:58:08.117Z,7.47
2022-08-23T23:00:36.805Z,9.25
2022-08-23T23:03:04.189Z,10.50
2022-08-23T23:05:34.829Z,15.52
2022-08-23T23:08:19.788Z,9.82
2022-08-23T23:10:47.142Z,15.85
2022-08-23T23:13:14.468Z,9.95
2022-08-23T23:15:41.874Z,9.25
2022-08-23T23:18:09.209Z,9.48
2022-08-23T23:20:37.906Z,10.55
2022-08-23T23:23:05.848Z,8.23
2022-08-23T23:25:34.614Z,12.90
2022-08-23T23:28:02.401Z,10.20
2022-08-23T23:30:30.082Z,7.72
2022-08-23T23:32:57.479Z,12.05
2022-08-23T23:35:24.832Z,12.30
2022-08-23T23:37:53.640Z,14.32
2022-08-23T23:40:21.054Z,11.07
2022-08-23T23:42:48.449Z,10.80
2022-08-23T23:45:16.432Z,11.93
2022-08-23T23:47:43.782Z,7.75
2022-08-23T23:50:11.769Z,8.73
2022-08-23T23:52:39.311Z,11.43
2022-08-23T23:55:08.983Z,9.88
2022-08-23T23:57:36.327Z,9.05
